Lake Harbour, Canada
Current Conditions -  °F | °C
As of 9:00 PM on Friday 31 Oct 2014 (Local Time) from CYFB Reporting Station
Broken Clouds Broken Clouds  
Wind Chill: 28°   Ceiling: 3500
Heat Index: 36°   Visibility: 15mi
Dew Point: 30°   Wind: 10mph
Humidity: 81%   Direction: 90°E
Pressure: 29.75"   Gusts: NA
Location:  62.85°N, 69.89°W
Report Text: CYFB 010100Z 09009KT 15SM BKN035 02/M01 A2975 RMK SC7 SLP078
Loading
Personal Weather Stations






























Interactive Weather Map
Tropical Storm Tracking
New forecast layout! Learn more

10-Day Weather Forecast

Advertisements
Track Severe Weather on mobile